createdAt,value
2023-05-08T00:00:44.347Z,93874.81
2023-05-08T00:01:40.936Z,93873.41
2023-05-08T00:02:37.687Z,93876.81
2023-05-08T00:03:34.548Z,93874.19
2023-05-08T00:04:31.342Z,93876.25
2023-05-08T00:05:28.059Z,93877.16
2023-05-08T00:06:24.622Z,93869.41
2023-05-08T00:07:21.190Z,93871.75
2023-05-08T00:08:17.855Z,93806.03
2023-05-08T00:09:14.407Z,93874.53
2023-05-08T00:10:11.947Z,93871.63
2023-05-08T00:11:08.661Z,93867.81
2023-05-08T00:12:05.567Z,93875.41
2023-05-08T00:13:02.369Z,93875.84
2023-05-08T00:13:59.149Z,93879.09
2023-05-08T00:14:56.453Z,93833.13
2023-05-08T00:15:53.070Z,93843.22
2023-05-08T00:16:50.372Z,93881.31
2023-05-08T00:17:47.105Z,93878.69
2023-05-08T00:18:43.919Z,93872.72
2023-05-08T00:19:40.537Z,93863.53
2023-05-08T00:20:37.967Z,93881.69
2023-05-08T00:21:34.736Z,93850.00
2023-05-08T00:22:31.300Z,93848.34
2023-05-08T00:23:27.883Z,93880.34
2023-05-08T00:24:24.459Z,93871.47
2023-05-08T00:25:21.084Z,93840.81
2023-05-08T00:26:17.743Z,93883.34
2023-05-08T00:27:14.484Z,93871.66
2023-05-08T00:28:11.047Z,93880.75
2023-05-08T00:29:07.688Z,93880.59
2023-05-08T00:30:04.780Z,93852.44
2023-05-08T00:31:04.330Z,93842.88
2023-05-08T00:32:01.060Z,93883.69
2023-05-08T00:32:57.859Z,93882.28
2023-05-08T00:33:54.466Z,93879.72
2023-05-08T00:34:51.434Z,93838.78
2023-05-08T00:35:48.078Z,93886.09
2023-05-08T00:36:44.723Z,93894.75
2023-05-08T00:37:42.062Z,93886.19
2023-05-08T00:38:38.614Z,93892.66
2023-05-08T00:39:35.140Z,93888.22
2023-05-08T00:40:31.770Z,93895.72
2023-05-08T00:41:28.434Z,93896.19
2023-05-08T00:42:25.169Z,93892.56
2023-05-08T00:43:25.812Z,93887.25
2023-05-08T00:44:22.430Z,93855.84
2023-05-08T00:45:19.161Z,93886.50
2023-05-08T00:46:16.395Z,93887.19
2023-05-08T00:47:13.142Z,93881.72
2023-05-08T00:48:09.791Z,93891.84
2023-05-08T00:49:07.397Z,93870.25
2023-05-08T00:50:05.453Z,93889.13
2023-05-08T00:51:06.455Z,93892.59
2023-05-08T00:52:08.728Z,93894.63
2023-05-08T00:53:05.588Z,93897.56
2023-05-08T00:54:02.372Z,93894.72
2023-05-08T00:55:00.808Z,93897.91
2023-05-08T00:56:00.238Z,93897.97
2023-05-08T00:56:56.998Z,93896.56
2023-05-08T00:57:53.767Z,93893.75
2023-05-08T00:58:51.248Z,93881.41
2023-05-08T00:59:49.520Z,93786.78
2023-05-08T01:00:50.896Z,93832.09
2023-05-08T01:01:48.991Z,93900.00
2023-05-08T01:02:46.802Z,93899.34
2023-05-08T01:03:45.034Z,93899.94
2023-05-08T01:04:44.369Z,93897.66
2023-05-08T01:05:41.774Z,93897.00
2023-05-08T01:06:38.450Z,93862.94
2023-05-08T01:07:35.118Z,93880.69
2023-05-08T01:08:32.089Z,93898.28
2023-05-08T01:09:29.052Z,93875.16
2023-05-08T01:10:38.080Z,93896.00
2023-05-08T01:11:41.833Z,93908.16
2023-05-08T01:13:04.997Z,93895.69
2023-05-08T01:14:14.495Z,93894.06
2023-05-08T01:15:36.554Z,93902.47
2023-05-08T01:16:58.634Z,93897.28
2023-05-08T01:18:10.154Z,93901.06
2023-05-08T01:19:16.069Z,93900.25
2023-05-08T01:20:24.833Z,93901.63
2023-05-08T01:21:44.163Z,93904.03
2023-05-08T01:22:52.565Z,93899.84
2023-05-08T01:24:17.180Z,93895.72
2023-05-08T01:25:47.604Z,93898.28
2023-05-08T01:27:03.008Z,93905.34
2023-05-08T01:28:13.973Z,93899.28
2023-05-08T01:29:45.963Z,93898.09
2023-05-08T01:31:19.874Z,93901.34
2023-05-08T01:32:25.086Z,93897.34
2023-05-08T01:33:41.662Z,93895.00
2023-05-08T01:35:14.382Z,93884.41
2023-05-08T01:36:28.547Z,93889.03
2023-05-08T01:37:35.763Z,93891.16
2023-05-08T01:39:07.756Z,93862.41
2023-05-08T01:40:18.147Z,93888.69
2023-05-08T01:41:18.509Z,93889.06
2023-05-08T01:42:53.502Z,93883.59
2023-05-08T01:44:19.929Z,93880.91
2023-05-08T01:45:25.800Z,93882.31
2023-05-08T01:46:28.302Z,93881.41
2023-05-08T01:47:27.083Z,93871.13
2023-05-08T01:48:35.496Z,93883.56
2023-05-08T01:49:37.411Z,93876.69
2023-05-08T01:50:40.805Z,93877.19
2023-05-08T01:51:46.676Z,93877.84
2023-05-08T01:52:50.609Z,93879.53
2023-05-08T01:53:54.359Z,93877.13
2023-05-08T01:55:00.118Z,93881.19
2023-05-08T01:56:00.498Z,93875.56
2023-05-08T01:57:00.218Z,93879.13
2023-05-08T01:57:58.652Z,93877.91
2023-05-08T01:58:58.120Z,93869.38
2023-05-08T01:59:57.449Z,93844.06
2023-05-08T02:00:55.209Z,93879.31
2023-05-08T02:01:57.155Z,93882.41
2023-05-08T02:02:55.816Z,93885.69
2023-05-08T02:03:53.921Z,93881.22
2023-05-08T02:04:52.515Z,93887.19
2023-05-08T02:05:50.551Z,93886.00
2023-05-08T02:06:47.285Z,93886.63
2023-05-08T02:07:45.794Z,93900.69
2023-05-08T02:08:44.486Z,93852.03
2023-05-08T02:09:44.121Z,93885.25
2023-05-08T02:10:42.464Z,93889.56
2023-05-08T02:11:41.366Z,93879.22
2023-05-08T02:12:40.055Z,93892.25
2023-05-08T02:13:38.977Z,93888.63
2023-05-08T02:14:37.496Z,93885.69
2023-05-08T02:15:36.712Z,93884.75
2023-05-08T02:16:34.371Z,93886.91
2023-05-08T02:17:33.695Z,93891.31
2023-05-08T02:18:32.334Z,93892.22
2023-05-08T02:19:30.484Z,93887.34
2023-05-08T02:20:28.989Z,93882.69
2023-05-08T02:21:26.613Z,93891.50
2023-05-08T02:22:24.486Z,93892.09
2023-05-08T02:23:23.532Z,93887.97
2023-05-08T02:24:21.405Z,93881.94
2023-05-08T02:25:19.389Z,93829.63
2023-05-08T02:26:17.144Z,93879.25
2023-05-08T02:27:14.769Z,93881.84
2023-05-08T02:28:12.172Z,93882.59
2023-05-08T02:29:09.512Z,93893.88
2023-05-08T02:30:08.471Z,93888.88
2023-05-08T02:31:07.081Z,93893.38
2023-05-08T02:32:04.429Z,93887.38
2023-05-08T02:33:01.471Z,93890.81
2023-05-08T02:33:59.870Z,93890.06
2023-05-08T02:35:03.262Z,93858.47
2023-05-08T02:36:02.906Z,93849.94
2023-05-08T02:37:00.464Z,93890.09
2023-05-08T02:37:58.669Z,93891.13
2023-05-08T02:38:58.336Z,93888.13
2023-05-08T02:39:58.567Z,93889.06
2023-05-08T02:41:01.060Z,93887.00
2023-05-08T02:41:57.704Z,93888.38
2023-05-08T02:42:54.976Z,93889.59
2023-05-08T02:43:52.884Z,93892.25
2023-05-08T02:44:49.521Z,93882.94
2023-05-08T02:45:50.237Z,93879.22
2023-05-08T02:47:00.838Z,93895.25
2023-05-08T02:48:10.978Z,93895.50
2023-05-08T02:49:16.978Z,93786.66
2023-05-08T02:50:24.758Z,93886.13
2023-05-08T02:51:44.412Z,93888.53
2023-05-08T02:52:47.421Z,93892.25
2023-05-08T02:53:51.865Z,93883.81
2023-05-08T02:54:51.482Z,93896.28
2023-05-08T02:55:55.103Z,93872.38
2023-05-08T02:57:09.186Z,93893.53
2023-05-08T02:58:29.834Z,93852.81
2023-05-08T02:59:37.015Z,93888.47
2023-05-08T03:00:42.427Z,93894.47
2023-05-08T03:02:08.780Z,93886.06
2023-05-08T03:03:13.690Z,93893.44
2023-05-08T03:04:12.397Z,93896.53
2023-05-08T03:05:19.034Z,93895.31
2023-05-08T03:06:21.683Z,93885.50
2023-05-08T03:07:23.167Z,93895.00
2023-05-08T03:08:26.059Z,93891.22
2023-05-08T03:09:26.869Z,93899.16
2023-05-08T03:10:29.823Z,93893.72
2023-05-08T03:11:32.123Z,93889.16
2023-05-08T03:12:32.685Z,93889.59
2023-05-08T03:13:32.451Z,93796.81
2023-05-08T03:14:31.974Z,93837.91
2023-05-08T03:15:36.592Z,93848.50
2023-05-08T03:16:36.722Z,93872.63
2023-05-08T03:17:35.461Z,93892.69
2023-05-08T03:18:50.240Z,93896.56
2023-05-08T03:19:49.887Z,93902.16
2023-05-08T03:20:54.540Z,93897.16
2023-05-08T03:21:53.287Z,93899.81
2023-05-08T03:22:53.349Z,93898.53
2023-05-08T03:23:52.500Z,93898.78
2023-05-08T03:24:50.812Z,93897.06
2023-05-08T03:25:47.838Z,93896.38
2023-05-08T03:26:45.461Z,93868.22
2023-05-08T03:27:43.807Z,93877.34
2023-05-08T03:28:40.660Z,93899.66
2023-05-08T03:29:40.037Z,93851.56
2023-05-08T03:30:37.990Z,93902.81
2023-05-08T03:31:36.354Z,93902.34
2023-05-08T03:32:34.906Z,93899.41
2023-05-08T03:33:33.251Z,93871.75
2023-05-08T03:34:31.285Z,93900.19
2023-05-08T03:35:28.773Z,93784.97
2023-05-08T03:36:27.345Z,93881.13
2023-05-08T03:37:24.276Z,93890.38
2023-05-08T03:38:22.263Z,93913.69
2023-05-08T03:39:19.017Z,93897.06
2023-05-08T03:40:15.768Z,93880.72
2023-05-08T03:41:12.897Z,93905.00
2023-05-08T03:42:09.921Z,93901.50
2023-05-08T03:43:11.394Z,93906.31
2023-05-08T03:44:08.558Z,93907.25
2023-05-08T03:45:07.096Z,93905.94
2023-05-08T03:46:07.217Z,93910.16
2023-05-08T03:47:04.925Z,93871.41
2023-05-08T03:48:02.130Z,93877.78
2023-05-08T03:49:03.873Z,93904.50
2023-05-08T03:50:00.901Z,93903.28
2023-05-08T03:50:58.745Z,93906.31
2023-05-08T03:51:56.814Z,93901.22
2023-05-08T03:52:53.746Z,93905.34
2023-05-08T03:53:50.374Z,93896.22
2023-05-08T03:54:47.257Z,93901.81
2023-05-08T03:55:43.896Z,93909.28
2023-05-08T03:56:40.454Z,93906.97
2023-05-08T03:57:53.494Z,93912.63
2023-05-08T03:59:33.681Z,93905.38
2023-05-08T04:00:49.091Z,93906.03
2023-05-08T04:01:59.076Z,93899.22
2023-05-08T04:03:04.338Z,93896.81
2023-05-08T04:04:13.314Z,93895.09
2023-05-08T04:05:31.873Z,93902.41
2023-05-08T04:06:49.922Z,93908.88
2023-05-08T04:07:53.937Z,93906.16
2023-05-08T04:09:28.941Z,93906.31
2023-05-08T04:10:38.331Z,93910.03
2023-05-08T04:11:44.648Z,93915.75
2023-05-08T04:13:02.695Z,93919.81
2023-05-08T04:14:04.550Z,93916.09
2023-05-08T04:15:22.648Z,93909.63
2023-05-08T04:16:25.457Z,93924.63
2023-05-08T04:17:45.867Z,93912.38
2023-05-08T04:18:47.084Z,93905.75
2023-05-08T04:19:47.071Z,93922.91
2023-05-08T04:20:47.412Z,93921.88
2023-05-08T04:21:45.068Z,93897.31
2023-05-08T04:22:43.405Z,93920.72
2023-05-08T04:23:42.599Z,93923.19
2023-05-08T04:24:45.950Z,93894.84
2023-05-08T04:25:43.780Z,93919.22
2023-05-08T04:26:41.772Z,93889.47
2023-05-08T04:27:38.916Z,93927.44
2023-05-08T04:28:35.734Z,93929.38
2023-05-08T04:29:33.429Z,93934.94
2023-05-08T04:30:30.363Z,93894.53
2023-05-08T04:31:28.075Z,93921.25
2023-05-08T04:32:25.852Z,93932.09
2023-05-08T04:33:22.494Z,93936.63
2023-05-08T04:34:19.425Z,93935.84
2023-05-08T04:35:16.150Z,93935.97
2023-05-08T04:36:14.241Z,93937.88
2023-05-08T04:37:25.898Z,93930.69
2023-05-08T04:38:22.515Z,93933.25
2023-05-08T04:39:20.049Z,93922.66
2023-05-08T04:40:16.764Z,93929.84
2023-05-08T04:41:13.365Z,93929.06
2023-05-08T04:42:10.041Z,93925.13
2023-05-08T04:43:06.673Z,93933.16
2023-05-08T04:44:04.584Z,93927.00
2023-05-08T04:45:01.230Z,93927.34
2023-05-08T04:45:57.887Z,93931.75
2023-05-08T04:46:54.489Z,93923.41
2023-05-08T04:47:51.152Z,93926.91
2023-05-08T04:48:47.793Z,93923.22
2023-05-08T04:49:44.434Z,93918.56
2023-05-08T04:50:41.420Z,93918.41
2023-05-08T04:51:38.014Z,93894.53
2023-05-08T04:52:34.866Z,93913.22
2023-05-08T04:53:35.182Z,93920.78
2023-05-08T04:54:31.804Z,93919.38
2023-05-08T04:55:28.462Z,93844.81
2023-05-08T04:56:25.191Z,93915.50
2023-05-08T04:57:21.788Z,93916.03
2023-05-08T04:58:18.427Z,93922.03
2023-05-08T04:59:16.184Z,93918.38
2023-05-08T05:00:13.543Z,93912.75
2023-05-08T05:01:10.232Z,93916.59
2023-05-08T05:02:08.417Z,93921.06
2023-05-08T05:03:05.561Z,93914.91
2023-05-08T05:04:02.321Z,93912.75
2023-05-08T05:05:01.246Z,93910.91
2023-05-08T05:05:59.440Z,93863.72
2023-05-08T05:06:56.137Z,93897.28
2023-05-08T05:07:52.789Z,93908.91
2023-05-08T05:08:49.388Z,93907.34
2023-05-08T05:09:46.406Z,93907.59
2023-05-08T05:10:43.042Z,93903.81
2023-05-08T05:11:39.641Z,93906.78
2023-05-08T05:12:36.306Z,93882.31
2023-05-08T05:13:32.859Z,93907.59
2023-05-08T05:14:29.507Z,93909.03
2023-05-08T05:15:26.040Z,93912.06
2023-05-08T05:16:22.736Z,93905.47
2023-05-08T05:17:19.364Z,93910.63
2023-05-08T05:18:15.997Z,93916.22
2023-05-08T05:19:12.856Z,93914.66
2023-05-08T05:20:10.344Z,93918.25
2023-05-08T05:21:06.891Z,93911.88
2023-05-08T05:22:03.598Z,93912.66
2023-05-08T05:23:00.213Z,93911.47
2023-05-08T05:23:56.802Z,93870.38
2023-05-08T05:24:53.340Z,93915.94
2023-05-08T05:25:49.914Z,93907.41
2023-05-08T05:26:46.559Z,93911.56
2023-05-08T05:27:43.102Z,93909.00
2023-05-08T05:28:39.718Z,93911.28
2023-05-08T05:29:36.490Z,93911.44
2023-05-08T05:30:33.763Z,93855.78
2023-05-08T05:31:30.477Z,93897.94
2023-05-08T05:32:27.074Z,93856.97
2023-05-08T05:33:23.695Z,93901.56
2023-05-08T05:34:20.258Z,93905.66
2023-05-08T05:35:16.910Z,93906.16
2023-05-08T05:36:13.640Z,93902.38
2023-05-08T05:37:10.307Z,93913.84
2023-05-08T05:38:07.025Z,93907.63
2023-05-08T05:39:03.756Z,93894.56
2023-05-08T05:40:00.404Z,93909.22
2023-05-08T05:40:56.966Z,93906.16
2023-05-08T05:41:53.594Z,93905.59
2023-05-08T05:42:53.432Z,93886.03
2023-05-08T05:43:50.021Z,93909.72
2023-05-08T05:44:46.670Z,93908.09
2023-05-08T05:45:43.348Z,93911.22
2023-05-08T05:46:41.465Z,93911.53
2023-05-08T05:47:44.910Z,93872.94
2023-05-08T05:48:41.500Z,93897.84
2023-05-08T05:49:39.704Z,93893.94
2023-05-08T05:50:37.950Z,93896.72
2023-05-08T05:51:34.549Z,93889.97
2023-05-08T05:52:31.682Z,93891.13
2023-05-08T05:53:28.558Z,93900.53
2023-05-08T05:54:25.177Z,93903.53
2023-05-08T05:55:22.289Z,93906.78
2023-05-08T05:56:18.905Z,93883.00
2023-05-08T05:57:15.586Z,93869.91
2023-05-08T05:58:12.194Z,93894.81
2023-05-08T05:59:08.872Z,93900.53
2023-05-08T06:00:07.749Z,93903.91
2023-05-08T06:01:04.577Z,93912.41
2023-05-08T06:02:01.196Z,93895.91
2023-05-08T06:02:58.020Z,93898.03
2023-05-08T06:03:55.401Z,93861.06
2023-05-08T06:04:52.613Z,93808.22
2023-05-08T06:05:49.230Z,93898.31
2023-05-08T06:06:47.340Z,93891.22
2023-05-08T06:07:43.948Z,93895.88
2023-05-08T06:08:40.551Z,93895.31
2023-05-08T06:09:37.060Z,93896.09
2023-05-08T06:10:33.618Z,93899.16
2023-05-08T06:11:30.674Z,93893.22
2023-05-08T06:12:28.393Z,93866.81
2023-05-08T06:13:25.124Z,93900.09
2023-05-08T06:14:21.999Z,93895.50
2023-05-08T06:15:18.759Z,93890.69
2023-05-08T06:16:15.536Z,93895.63
2023-05-08T06:17:12.281Z,93888.84
2023-05-08T06:18:08.999Z,93858.22
2023-05-08T06:19:05.865Z,93893.00
2023-05-08T06:20:03.493Z,93897.53
2023-05-08T06:21:00.844Z,93864.25
2023-05-08T06:21:57.411Z,93891.94
2023-05-08T06:22:54.135Z,93886.47
2023-05-08T06:23:50.680Z,93902.69
2023-05-08T06:24:47.279Z,93899.88
2023-05-08T06:25:43.824Z,93895.31
2023-05-08T06:26:40.570Z,93900.56
2023-05-08T06:27:37.232Z,93896.28
2023-05-08T06:28:33.956Z,93890.84
2023-05-08T06:29:30.530Z,93899.41
2023-05-08T06:30:27.199Z,93898.00
2023-05-08T06:31:23.983Z,93898.31
2023-05-08T06:32:21.106Z,93893.00
2023-05-08T06:33:18.569Z,93896.47
2023-05-08T06:34:15.159Z,93897.22
2023-05-08T06:35:13.423Z,93900.69
2023-05-08T06:36:10.627Z,93901.44
2023-05-08T06:37:07.373Z,93888.78
2023-05-08T06:38:03.948Z,93891.16
2023-05-08T06:39:00.473Z,93897.84
2023-05-08T06:40:10.293Z,93904.66
2023-05-08T06:41:09.244Z,93902.81
2023-05-08T06:42:08.441Z,93904.38
2023-05-08T06:43:05.897Z,93902.75
2023-05-08T06:44:02.701Z,93900.00
2023-05-08T06:44:59.317Z,93902.78
2023-05-08T06:45:56.128Z,93895.09
2023-05-08T06:46:52.862Z,93902.75
2023-05-08T06:47:49.520Z,93899.94
2023-05-08T06:48:47.098Z,93906.16
2023-05-08T06:49:43.695Z,93910.13
2023-05-08T06:50:41.051Z,93904.31
2023-05-08T06:51:38.381Z,93901.91
2023-05-08T06:52:35.042Z,93903.88
2023-05-08T06:53:31.578Z,93899.22
2023-05-08T06:54:28.230Z,93900.81
2023-05-08T06:55:24.863Z,93905.78
2023-05-08T06:56:22.759Z,93903.03
2023-05-08T06:57:19.410Z,93905.41
2023-05-08T06:58:16.079Z,93904.72
2023-05-08T06:59:12.888Z,93905.47
2023-05-08T07:00:10.211Z,93897.03
2023-05-08T07:01:06.822Z,93897.03
2023-05-08T07:02:03.497Z,93888.91
2023-05-08T07:03:00.202Z,93897.41
2023-05-08T07:03:56.861Z,93901.66
2023-05-08T07:04:53.555Z,93897.81
2023-05-08T07:05:50.123Z,93887.00
2023-05-08T07:06:46.732Z,93901.69
2023-05-08T07:07:43.438Z,93909.00
2023-05-08T07:08:39.990Z,93907.06
2023-05-08T07:09:36.561Z,93911.31
2023-05-08T07:10:33.407Z,93907.47
2023-05-08T07:11:29.956Z,93905.91
2023-05-08T07:12:27.073Z,93909.75
2023-05-08T07:13:23.733Z,93912.09
2023-05-08T07:14:20.447Z,93908.59
2023-05-08T07:15:25.596Z,93904.00
2023-05-08T07:16:22.948Z,93907.44
2023-05-08T07:17:19.544Z,93911.69
2023-05-08T07:18:16.232Z,93906.69
2023-05-08T07:19:12.852Z,93916.69
2023-05-08T07:20:09.749Z,93916.19
2023-05-08T07:21:06.364Z,93906.56
2023-05-08T07:22:03.395Z,93909.31
2023-05-08T07:23:00.020Z,93911.63
2023-05-08T07:23:56.886Z,93908.53
2023-05-08T07:24:53.426Z,93903.91
2023-05-08T07:25:49.981Z,93907.00
2023-05-08T07:26:46.585Z,93907.03
2023-05-08T07:27:43.246Z,93908.56
2023-05-08T07:28:39.877Z,93903.19
2023-05-08T07:29:36.429Z,93902.03
2023-05-08T07:30:33.829Z,93905.47
2023-05-08T07:31:30.966Z,93905.47
2023-05-08T07:32:27.616Z,93897.75
2023-05-08T07:33:24.954Z,93904.63
2023-05-08T07:34:21.608Z,93907.72
2023-05-08T07:35:18.284Z,93904.19
2023-05-08T07:36:14.946Z,93904.03
2023-05-08T07:37:11.817Z,93914.22
2023-05-08T07:38:08.592Z,93910.09
2023-05-08T07:39:05.394Z,93905.22
2023-05-08T07:40:02.001Z,93885.34
2023-05-08T07:40:59.833Z,93911.25
2023-05-08T07:41:56.576Z,93896.56
2023-05-08T07:42:53.282Z,93909.28
2023-05-08T07:43:50.017Z,93902.75
2023-05-08T07:44:54.463Z,93902.66
2023-05-08T07:45:52.098Z,93907.69
2023-05-08T07:46:48.970Z,93912.31
2023-05-08T07:47:50.669Z,93907.44
2023-05-08T07:48:47.544Z,93904.63
2023-05-08T07:49:44.203Z,93909.31
2023-05-08T07:50:40.876Z,93915.84
2023-05-08T07:51:37.566Z,93908.09
2023-05-08T07:52:34.295Z,93907.69
2023-05-08T07:53:30.848Z,93905.88
2023-05-08T07:54:27.462Z,93860.81
2023-05-08T07:55:24.154Z,93912.69
2023-05-08T07:56:23.029Z,93916.06
2023-05-08T07:57:19.633Z,93907.75
2023-05-08T07:58:16.214Z,93912.31
2023-05-08T07:59:12.804Z,93907.19
2023-05-08T08:00:12.159Z,93910.72
2023-05-08T08:01:08.775Z,93909.66
2023-05-08T08:02:05.645Z,93913.44
2023-05-08T08:03:02.571Z,93910.41
2023-05-08T08:03:59.429Z,93911.00
2023-05-08T08:04:56.346Z,93889.19
2023-05-08T08:05:52.864Z,93914.66
2023-05-08T08:06:49.437Z,93892.09
2023-05-08T08:07:47.456Z,93746.09
2023-05-08T08:08:44.117Z,93916.09
2023-05-08T08:09:40.702Z,93919.44
2023-05-08T08:10:37.311Z,93919.09
2023-05-08T08:11:34.154Z,93916.44
2023-05-08T08:12:32.038Z,93913.00
2023-05-08T08:13:28.953Z,93914.50
2023-05-08T08:14:25.648Z,93908.47
2023-05-08T08:15:22.252Z,93912.97
2023-05-08T08:16:18.844Z,93914.31
2023-05-08T08:17:15.681Z,93917.72
2023-05-08T08:18:13.073Z,93914.84
2023-05-08T08:19:10.725Z,93916.00
2023-05-08T08:20:08.117Z,93911.88
2023-05-08T08:21:06.713Z,93913.31
2023-05-08T08:22:03.306Z,93911.41
2023-05-08T08:23:00.239Z,93914.97
2023-05-08T08:23:57.400Z,93910.84
2023-05-08T08:24:56.906Z,93917.41
2023-05-08T08:25:53.611Z,93917.25
2023-05-08T08:26:50.155Z,93915.44
2023-05-08T08:27:46.730Z,93915.91
2023-05-08T08:28:43.818Z,93912.38
2023-05-08T08:29:40.656Z,93919.03
2023-05-08T08:30:37.264Z,93909.06
2023-05-08T08:31:34.113Z,93912.19
2023-05-08T08:32:30.848Z,93914.09
2023-05-08T08:33:29.142Z,93916.44
2023-05-08T08:34:25.794Z,93913.00
2023-05-08T08:35:29.169Z,93903.50
2023-05-08T08:36:25.763Z,93905.53
2023-05-08T08:37:23.528Z,93904.94
2023-05-08T08:38:20.130Z,93909.06
2023-05-08T08:39:17.013Z,93896.00
2023-05-08T08:40:13.872Z,93898.16
2023-05-08T08:41:13.822Z,93907.16
2023-05-08T08:42:10.502Z,93912.53
2023-05-08T08:43:07.611Z,93907.69
2023-05-08T08:44:04.391Z,93903.88
2023-05-08T08:45:01.712Z,93903.31
2023-05-08T08:45:59.578Z,93898.13
2023-05-08T08:46:58.558Z,93897.91
2023-05-08T08:48:00.455Z,93900.00
2023-05-08T08:48:58.728Z,93898.25
2023-05-08T08:49:56.662Z,93893.81
2023-05-08T08:50:58.036Z,93862.69
2023-05-08T08:52:07.055Z,93889.13
2023-05-08T08:53:12.735Z,93897.13
2023-05-08T08:54:12.662Z,93891.63
2023-05-08T08:55:12.991Z,93886.50
2023-05-08T08:56:11.676Z,93887.59
2023-05-08T08:57:09.399Z,93881.84
2023-05-08T08:58:24.027Z,93889.69
2023-05-08T08:59:21.468Z,93892.59
2023-05-08T09:00:20.414Z,93882.25
2023-05-08T09:01:19.603Z,93889.41
2023-05-08T09:02:19.484Z,93884.38
2023-05-08T09:03:16.760Z,93869.00
2023-05-08T09:04:13.744Z,93883.59
2023-05-08T09:05:11.561Z,93878.19
2023-05-08T09:06:08.851Z,93880.91
2023-05-08T09:07:08.655Z,93880.13
2023-05-08T09:08:06.139Z,93876.53
2023-05-08T09:09:03.073Z,93887.63
2023-05-08T09:10:00.475Z,93882.81
2023-05-08T09:10:57.406Z,93886.72
2023-05-08T09:11:53.991Z,93887.97
2023-05-08T09:12:50.722Z,93880.38
2023-05-08T09:13:47.358Z,93879.28
2023-05-08T09:14:44.243Z,93882.16
2023-05-08T09:15:41.571Z,93870.25
2023-05-08T09:16:38.325Z,93877.09
2023-05-08T09:17:34.991Z,93870.69
2023-05-08T09:18:31.654Z,93874.19
2023-05-08T09:19:29.096Z,93868.41
2023-05-08T09:20:26.787Z,93866.38
2023-05-08T09:21:23.487Z,93870.84
2023-05-08T09:22:20.346Z,93861.91
2023-05-08T09:23:17.618Z,93859.78
2023-05-08T09:24:14.318Z,93861.66
2023-05-08T09:25:11.156Z,93856.50
2023-05-08T09:26:09.288Z,93858.50
2023-05-08T09:27:20.883Z,93857.66
2023-05-08T09:28:25.173Z,93848.88
2023-05-08T09:29:22.304Z,93858.19
2023-05-08T09:30:19.069Z,93842.97
2023-05-08T09:31:15.780Z,93854.66
2023-05-08T09:32:18.752Z,93824.19
2023-05-08T09:33:15.678Z,93847.22
2023-05-08T09:34:27.095Z,93850.59
2023-05-08T09:35:36.669Z,93850.72
2023-05-08T09:36:34.694Z,93852.34
2023-05-08T09:37:31.441Z,93852.19
2023-05-08T09:38:38.424Z,93847.44
2023-05-08T09:39:35.138Z,93847.47
2023-05-08T09:40:31.815Z,93848.03
2023-05-08T09:41:28.736Z,93849.66
2023-05-08T09:42:37.914Z,93851.50
2023-05-08T09:43:34.827Z,93855.72
2023-05-08T09:44:53.316Z,93854.28
2023-05-08T09:45:50.058Z,93853.94
2023-05-08T09:46:49.671Z,93850.09
2023-05-08T09:47:49.315Z,93858.59
2023-05-08T09:48:46.088Z,93854.91
2023-05-08T09:50:13.372Z,93852.66
2023-05-08T09:51:11.061Z,93852.44
2023-05-08T09:52:08.496Z,93860.66
2023-05-08T09:53:05.158Z,93851.06
2023-05-08T09:54:05.802Z,93847.31
2023-05-08T09:55:08.053Z,93808.19
2023-05-08T09:56:05.103Z,93852.53
2023-05-08T09:57:12.040Z,93847.38
2023-05-08T09:58:08.964Z,93851.22
2023-05-08T09:59:23.362Z,93849.34
2023-05-08T10:00:20.617Z,93820.09
2023-05-08T10:01:32.361Z,93853.59
2023-05-08T10:02:29.325Z,93815.03
2023-05-08T10:03:46.503Z,93846.59
2023-05-08T10:04:43.326Z,93849.31
2023-05-08T10:05:40.493Z,93827.25
2023-05-08T10:06:37.462Z,93844.78
2023-05-08T10:07:38.552Z,93848.63
2023-05-08T10:08:35.141Z,93837.22
2023-05-08T10:09:42.537Z,93843.28
2023-05-08T10:10:39.624Z,93847.19
2023-05-08T10:11:36.749Z,93845.16
2023-05-08T10:12:33.742Z,93815.16
2023-05-08T10:13:30.407Z,93846.25
2023-05-08T10:14:27.062Z,93843.28
2023-05-08T10:15:25.893Z,93834.84
2023-05-08T10:16:22.864Z,93845.63
2023-05-08T10:17:41.911Z,93837.59
2023-05-08T10:18:42.326Z,93836.44
2023-05-08T10:19:46.346Z,93832.09
2023-05-08T10:20:46.488Z,93836.88
2023-05-08T10:21:48.035Z,93834.84
2023-05-08T10:22:44.876Z,93826.19
2023-05-08T10:23:49.236Z,93834.06
2023-05-08T10:24:50.097Z,93829.97
2023-05-08T10:25:48.797Z,93830.56
2023-05-08T10:27:19.620Z,93825.31
2023-05-08T10:28:43.554Z,93820.03
2023-05-08T10:29:58.708Z,93822.38
2023-05-08T10:31:00.353Z,93781.44
2023-05-08T10:31:59.481Z,93819.09
2023-05-08T10:32:59.343Z,93820.28
2023-05-08T10:33:56.830Z,93815.88
2023-05-08T10:34:58.864Z,93819.38
2023-05-08T10:35:56.090Z,93813.81
2023-05-08T10:36:54.198Z,93780.88
2023-05-08T10:37:52.212Z,93789.38
2023-05-08T10:38:50.320Z,93807.47
2023-05-08T10:39:48.327Z,93802.41
2023-05-08T10:40:45.199Z,93776.44
2023-05-08T10:41:42.155Z,93814.00
2023-05-08T10:42:40.047Z,93778.00
2023-05-08T10:43:41.383Z,93804.34
2023-05-08T10:44:38.796Z,93815.34
2023-05-08T10:45:36.724Z,93805.69
2023-05-08T10:46:54.877Z,93809.94
2023-05-08T10:47:59.660Z,93810.81
2023-05-08T10:49:15.315Z,93817.88
2023-05-08T10:50:19.536Z,93809.78
2023-05-08T10:51:35.549Z,93807.81
2023-05-08T10:52:42.723Z,93808.47
2023-05-08T10:53:59.413Z,93811.16
2023-05-08T10:55:04.798Z,93805.31
2023-05-08T10:56:01.826Z,93803.28
2023-05-08T10:57:11.856Z,93772.34
2023-05-08T10:58:28.525Z,93805.13
2023-05-08T10:59:25.072Z,93795.72
2023-05-08T11:00:23.521Z,93804.22
2023-05-08T11:01:20.168Z,93796.69
2023-05-08T11:02:26.038Z,93801.53
2023-05-08T11:03:31.356Z,93792.25
2023-05-08T11:04:28.733Z,93792.47
2023-05-08T11:05:26.464Z,93800.34
2023-05-08T11:06:42.793Z,93794.97
2023-05-08T11:07:59.567Z,93804.72
2023-05-08T11:08:57.277Z,93794.56
2023-05-08T11:09:55.739Z,93797.97
2023-05-08T11:11:06.261Z,93793.19
2023-05-08T11:12:08.901Z,93802.25
2023-05-08T11:13:07.443Z,93786.72
2023-05-08T11:14:07.058Z,93793.25
2023-05-08T11:15:06.741Z,93787.47
2023-05-08T11:16:04.347Z,93788.97
2023-05-08T11:17:01.135Z,93781.63
2023-05-08T11:17:57.868Z,93786.38
2023-05-08T11:19:17.182Z,93767.81
2023-05-08T11:20:14.237Z,93777.25
2023-05-08T11:21:19.887Z,93776.25
2023-05-08T11:22:26.114Z,93768.25
2023-05-08T11:23:22.946Z,93766.00
2023-05-08T11:24:19.739Z,93763.09
2023-05-08T11:25:16.733Z,93768.59
2023-05-08T11:26:14.872Z,93742.88
2023-05-08T11:27:11.508Z,93769.72
2023-05-08T11:28:09.651Z,93771.16
2023-05-08T11:29:16.793Z,93657.69
2023-05-08T11:30:36.097Z,93761.41
2023-05-08T11:31:51.973Z,93758.31
2023-05-08T11:33:04.612Z,93756.66
2023-05-08T11:34:01.483Z,93757.56
2023-05-08T11:34:58.079Z,93760.00
2023-05-08T11:35:56.002Z,93757.25
2023-05-08T11:37:04.602Z,93757.00
2023-05-08T11:38:24.323Z,93759.59
2023-05-08T11:39:20.912Z,93763.56
2023-05-08T11:40:45.547Z,93748.09
2023-05-08T11:41:42.288Z,93752.53
2023-05-08T11:42:38.929Z,93749.22
2023-05-08T11:43:38.648Z,93750.88
2023-05-08T11:44:35.745Z,93744.13
2023-05-08T11:45:33.943Z,93748.09
2023-05-08T11:46:41.449Z,93754.97
2023-05-08T11:47:39.623Z,93741.97